createdAt,value
2019-04-06T00:00:26.173Z,48.23
2019-04-06T00:02:52.188Z,47.33
2019-04-06T00:05:18.217Z,47.73
2019-04-06T00:07:44.314Z,47.57
2019-04-06T00:10:11.092Z,48.67
2019-04-06T00:12:37.224Z,48.63
2019-04-06T00:15:05.376Z,48.07
2019-04-06T00:17:31.481Z,48.67
2019-04-06T00:19:57.526Z,47.13
2019-04-06T00:22:23.547Z,49.73
2019-04-06T00:24:49.681Z,48.47
2019-04-06T00:27:15.907Z,49.30
2019-04-06T00:29:41.920Z,49.77
2019-04-06T00:32:07.944Z,47.67
2019-04-06T00:34:34.170Z,50.73
2019-04-06T00:37:00.300Z,50.63
2019-04-06T00:39:26.420Z,48.43
2019-04-06T00:41:52.549Z,50.83
2019-04-06T00:44:18.873Z,50.77
2019-04-06T00:46:44.898Z,50.40
2019-04-06T00:49:11.022Z,50.97
2019-04-06T00:51:37.147Z,50.53
2019-04-06T00:54:03.309Z,51.33
2019-04-06T00:56:29.479Z,53.73
2019-04-06T00:58:55.674Z,51.57
2019-04-06T01:01:21.760Z,51.40
2019-04-06T01:03:47.773Z,53.63
2019-04-06T01:06:13.794Z,52.57
2019-04-06T01:08:39.919Z,53.30
2019-04-06T01:11:06.044Z,52.00
2019-04-06T01:13:32.067Z,52.53
2019-04-06T01:15:58.241Z,50.90
2019-04-06T01:18:24.317Z,52.83
2019-04-06T01:20:50.340Z,52.77
2019-04-06T01:23:16.366Z,53.23
2019-04-06T01:25:42.393Z,54.17
2019-04-06T01:28:08.615Z,50.60
2019-04-06T01:30:34.708Z,52.20
2019-04-06T01:33:00.762Z,53.40
2019-04-06T01:35:26.785Z,53.17
2019-04-06T01:37:53.017Z,54.00
2019-04-06T01:40:19.036Z,54.43
2019-04-06T01:42:45.061Z,52.03
2019-04-06T01:45:11.182Z,54.73
2019-04-06T01:47:37.203Z,54.77
2019-04-06T01:50:04.047Z,52.67
2019-04-06T01:52:30.169Z,51.90
2019-04-06T01:54:56.295Z,53.13
2019-04-06T01:57:22.322Z,53.00
2019-04-06T01:59:48.246Z,52.97
2019-04-06T02:02:14.172Z,52.93
2019-04-06T02:04:40.224Z,53.63
2019-04-06T02:07:06.472Z,54.17
2019-04-06T02:09:32.556Z,54.67
2019-04-06T02:11:58.965Z,53.53
2019-04-06T02:14:25.157Z,54.17
2019-04-06T02:16:51.186Z,53.47
2019-04-06T02:19:17.246Z,54.17
2019-04-06T02:21:43.259Z,54.73
2019-04-06T02:24:09.283Z,55.33
2019-04-06T02:26:35.304Z,53.03
2019-04-06T02:29:01.331Z,53.17
2019-04-06T02:31:27.537Z,54.57
2019-04-06T02:33:53.815Z,54.63
2019-04-06T02:36:19.827Z,51.07
2019-04-06T02:38:45.852Z,53.17
2019-04-06T02:41:12.020Z,55.70
2019-04-06T02:43:38.375Z,58.50
2019-04-06T02:46:04.718Z,58.40
2019-04-06T02:48:31.153Z,59.17
2019-04-06T02:50:57.173Z,57.43
2019-04-06T02:53:23.373Z,57.73
2019-04-06T02:55:49.524Z,57.03
2019-04-06T02:58:15.649Z,58.63
2019-04-06T03:00:42.115Z,54.67
2019-04-06T03:03:08.540Z,58.57
2019-04-06T03:05:34.534Z,56.40
2019-04-06T03:08:00.780Z,55.80
2019-04-06T03:10:26.888Z,58.07
2019-04-06T03:12:52.951Z,57.00
2019-04-06T03:15:18.931Z,59.40
2019-04-06T03:17:44.957Z,58.03
2019-04-06T03:20:11.237Z,58.70
2019-04-06T03:22:37.204Z,59.57
2019-04-06T03:25:05.379Z,60.07
2019-04-06T03:27:31.412Z,59.93
2019-04-06T03:29:59.128Z,58.50
2019-04-06T03:32:25.487Z,59.00
2019-04-06T03:34:52.284Z,58.33
2019-04-06T03:37:18.367Z,59.90
2019-04-06T03:39:44.485Z,59.17
2019-04-06T03:42:11.328Z,60.60
2019-04-06T03:44:37.775Z,58.17
2019-04-06T03:47:03.891Z,58.50
2019-04-06T03:49:29.904Z,59.00
2019-04-06T03:51:56.145Z,56.10
2019-04-06T03:54:22.165Z,55.73
2019-04-06T03:56:48.252Z,54.77
2019-04-06T03:59:14.409Z,53.43
2019-04-06T04:01:40.341Z,55.67
2019-04-06T04:04:06.638Z,51.93
2019-04-06T04:06:32.677Z,53.87
2019-04-06T04:08:58.788Z,54.43
2019-04-06T04:11:24.971Z,54.33
2019-04-06T04:13:50.952Z,53.60
2019-04-06T04:16:16.977Z,54.00
2019-04-06T04:18:43.003Z,53.23
2019-04-06T04:21:09.042Z,53.73
2019-04-06T04:23:35.157Z,53.60
2019-04-06T04:26:01.371Z,54.40
2019-04-06T04:28:27.421Z,52.70
2019-04-06T04:30:53.628Z,53.33
2019-04-06T04:33:19.648Z,52.27
2019-04-06T04:35:45.914Z,54.67
2019-04-06T04:38:12.222Z,52.17
2019-04-06T04:40:38.219Z,53.23
2019-04-06T04:43:04.245Z,53.77
2019-04-06T04:45:30.275Z,52.50
2019-04-06T04:47:56.262Z,51.20
2019-04-06T04:50:22.444Z,50.67
2019-04-06T04:52:48.643Z,50.10
2019-04-06T04:55:14.747Z,49.30
2019-04-06T04:57:42.000Z,50.17
2019-04-06T05:00:09.166Z,49.90
2019-04-06T05:02:35.191Z,49.87
2019-04-06T05:05:01.334Z,50.13
2019-04-06T05:07:27.271Z,46.90
2019-04-06T05:09:53.363Z,47.83
2019-04-06T05:12:19.483Z,48.20
2019-04-06T05:14:56.872Z,47.87
2019-04-06T05:17:23.111Z,48.70
2019-04-06T05:19:49.141Z,48.80
2019-04-06T05:22:15.184Z,48.40
2019-04-06T05:24:41.377Z,47.67
2019-04-06T05:27:07.396Z,47.57
2019-04-06T05:29:33.700Z,47.57
2019-04-06T05:31:59.833Z,47.50
2019-04-06T05:34:25.776Z,49.03
2019-04-06T05:36:51.753Z,49.57
2019-04-06T05:39:17.712Z,47.27
2019-04-06T05:41:43.709Z,48.40
2019-04-06T05:44:11.873Z,48.43
2019-04-06T05:46:39.161Z,49.30
2019-04-06T05:49:05.375Z,47.13
2019-04-06T05:51:31.456Z,47.47
2019-04-06T05:53:57.844Z,45.43
2019-04-06T05:56:23.967Z,46.13
2019-04-06T05:58:50.029Z,45.33
2019-04-06T06:01:16.014Z,45.57
2019-04-06T06:03:42.161Z,46.77
2019-04-06T06:06:08.226Z,45.47
2019-04-06T06:08:34.399Z,48.10
2019-04-06T06:11:00.750Z,46.63
2019-04-06T06:13:26.843Z,47.43
2019-04-06T06:15:52.773Z,47.27
2019-04-06T06:18:26.463Z,48.00
2019-04-06T06:20:48.395Z,45.60
2019-04-06T06:23:14.568Z,47.83
2019-04-06T06:25:40.853Z,47.07
2019-04-06T06:28:14.231Z,47.13
2019-04-06T06:30:35.040Z,45.80
2019-04-06T06:33:01.166Z,45.03
2019-04-06T06:35:27.433Z,42.90
2019-04-06T06:37:53.669Z,42.80
2019-04-06T06:40:19.746Z,44.33
2019-04-06T06:42:45.716Z,43.90
2019-04-06T06:45:11.845Z,42.83
2019-04-06T06:47:37.925Z,42.47
2019-04-06T06:50:05.542Z,43.93
2019-04-06T06:52:31.603Z,40.23
2019-04-06T06:54:57.623Z,39.50
2019-04-06T06:57:23.953Z,41.43
2019-04-06T06:59:49.935Z,40.17
2019-04-06T07:02:16.203Z,40.67
2019-04-06T07:04:42.232Z,39.20
2019-04-06T07:07:08.318Z,39.83
2019-04-06T07:09:34.372Z,38.30
2019-04-06T07:12:00.350Z,38.90
2019-04-06T07:14:26.417Z,37.27
2019-04-06T07:16:52.442Z,37.37
2019-04-06T07:19:18.669Z,40.07
2019-04-06T07:21:44.718Z,37.87
2019-04-06T07:24:10.818Z,36.90
2019-04-06T07:26:37.144Z,37.67
2019-04-06T07:29:03.372Z,38.63
2019-04-06T07:31:29.810Z,37.77
2019-04-06T07:33:55.930Z,37.13
2019-04-06T07:36:22.156Z,36.73
2019-04-06T07:38:48.177Z,35.27
2019-04-06T07:41:14.203Z,34.87
2019-04-06T07:43:40.429Z,36.43
2019-04-06T07:46:06.450Z,37.17
2019-04-06T07:48:32.587Z,35.67
2019-04-06T07:50:58.623Z,36.03
2019-04-06T07:53:24.677Z,33.63
2019-04-06T07:55:51.794Z,33.33
2019-04-06T07:58:17.867Z,34.27
2019-04-06T08:00:44.536Z,33.83
2019-04-06T08:03:10.873Z,33.23
2019-04-06T08:05:36.883Z,34.17
2019-04-06T08:08:03.111Z,33.53
2019-04-06T08:10:29.338Z,34.37
2019-04-06T08:12:55.382Z,34.20
2019-04-06T08:15:21.487Z,34.33
2019-04-06T08:17:47.513Z,34.00
2019-04-06T08:20:13.887Z,31.80
2019-04-06T08:22:39.963Z,31.27
2019-04-06T08:25:06.452Z,32.40
2019-04-06T08:27:32.401Z,31.00
2019-04-06T08:29:58.545Z,28.70
2019-04-06T08:32:24.575Z,30.00
2019-04-06T08:34:50.595Z,30.53
2019-04-06T08:37:16.647Z,29.20
2019-04-06T08:39:42.645Z,30.40
2019-04-06T08:42:08.777Z,28.53
2019-04-06T08:44:35.101Z,28.43
2019-04-06T08:47:01.269Z,28.67
2019-04-06T08:49:27.645Z,29.27
2019-04-06T08:51:53.778Z,29.57
2019-04-06T08:54:19.841Z,29.10
2019-04-06T08:56:45.845Z,28.97
2019-04-06T08:59:13.309Z,28.73
2019-04-06T09:01:40.103Z,28.93
2019-04-06T09:04:06.239Z,29.17
2019-04-06T09:06:32.366Z,29.77
2019-04-06T09:08:58.308Z,28.57
2019-04-06T09:11:24.312Z,29.47
2019-04-06T09:13:50.333Z,30.67
2019-04-06T09:16:16.568Z,29.73
2019-04-06T09:18:42.786Z,30.77
2019-04-06T09:21:09.023Z,30.10
2019-04-06T09:23:35.034Z,28.93
2019-04-06T09:26:01.162Z,30.63
2019-04-06T09:28:27.704Z,29.13
2019-04-06T09:30:54.179Z,26.93
2019-04-06T09:33:20.783Z,25.77
2019-04-06T09:35:46.992Z,26.57
2019-04-06T09:38:13.084Z,26.87
2019-04-06T09:40:39.144Z,26.17
2019-04-06T09:43:05.160Z,27.60
2019-04-06T09:45:31.200Z,28.63
2019-04-06T09:47:57.209Z,27.00
2019-04-06T09:50:23.479Z,27.93
2019-04-06T09:52:49.559Z,27.80
2019-04-06T09:55:15.491Z,26.13
2019-04-06T09:57:41.711Z,27.27
2019-04-06T10:00:09.315Z,24.90
2019-04-06T10:02:35.699Z,27.10
2019-04-06T10:05:03.571Z,26.47
2019-04-06T10:07:29.731Z,26.83
2019-04-06T10:09:55.719Z,26.80
2019-04-06T10:12:21.736Z,26.73
2019-04-06T10:14:47.867Z,24.13
2019-04-06T10:17:13.882Z,26.20
2019-04-06T10:19:39.907Z,24.57
2019-04-06T10:22:06.188Z,24.83
2019-04-06T10:24:32.467Z,25.50
2019-04-06T10:26:58.695Z,25.67
2019-04-06T10:29:24.993Z,26.47
2019-04-06T10:31:51.381Z,26.87
2019-04-06T10:34:17.490Z,25.53
2019-04-06T10:36:43.502Z,26.53
2019-04-06T10:39:09.626Z,27.20
2019-04-06T10:41:35.646Z,26.80
2019-04-06T10:44:01.666Z,25.83
2019-04-06T10:46:27.693Z,25.83
2019-04-06T10:48:53.730Z,25.33
2019-04-06T10:51:19.995Z,32.10
2019-04-06T10:53:46.115Z,25.77
2019-04-06T10:56:12.375Z,26.77
2019-04-06T10:58:38.518Z,26.77
2019-04-06T11:01:04.721Z,27.43
2019-04-06T11:03:30.977Z,25.97
2019-04-06T11:05:57.205Z,26.03
2019-04-06T11:08:23.580Z,25.33
2019-04-06T11:10:49.655Z,23.53
2019-04-06T11:13:15.733Z,24.90
2019-04-06T11:15:41.752Z,23.97
2019-04-06T11:18:07.881Z,22.67
2019-04-06T11:20:34.364Z,23.27
2019-04-06T11:23:00.744Z,22.47
2019-04-06T11:25:26.802Z,22.90
2019-04-06T11:27:52.841Z,23.60
2019-04-06T11:30:19.168Z,22.00
2019-04-06T11:32:45.189Z,22.13
2019-04-06T11:35:11.315Z,24.33
2019-04-06T11:37:37.342Z,23.37
2019-04-06T11:40:05.260Z,21.80
2019-04-06T11:42:31.534Z,22.97
2019-04-06T11:44:57.606Z,20.50
2019-04-06T11:47:23.612Z,20.20
2019-04-06T11:49:49.905Z,21.17
2019-04-06T11:52:15.862Z,21.47
2019-04-06T11:54:41.954Z,20.83
2019-04-06T11:57:07.977Z,22.30
2019-04-06T11:59:34.001Z,20.67
2019-04-06T12:02:00.334Z,20.27
2019-04-06T12:04:26.355Z,20.27
2019-04-06T12:06:52.381Z,20.43
2019-04-06T12:09:18.398Z,21.63
2019-04-06T12:11:44.455Z,18.83
2019-04-06T12:14:10.547Z,20.47
2019-04-06T12:16:36.929Z,15.67
2019-04-06T12:19:03.308Z,17.60
2019-04-06T12:21:29.452Z,18.13
2019-04-06T12:23:55.945Z,18.63
2019-04-06T12:26:22.004Z,16.83
2019-04-06T12:28:48.216Z,14.97
2019-04-06T12:31:14.406Z,15.33
2019-04-06T12:33:40.502Z,16.90
2019-04-06T12:36:06.494Z,16.30
2019-04-06T12:38:32.635Z,17.83
2019-04-06T12:40:59.150Z,15.00
2019-04-06T12:43:25.131Z,15.83
2019-04-06T12:45:51.442Z,15.07
2019-04-06T12:48:17.731Z,14.07
2019-04-06T12:50:43.882Z,14.70
2019-04-06T12:53:09.879Z,15.40
2019-04-06T12:55:36.007Z,17.13
2019-04-06T12:58:02.236Z,17.13
2019-04-06T13:00:28.258Z,17.30
2019-04-06T13:02:54.279Z,16.87
2019-04-06T13:05:20.404Z,16.50
2019-04-06T13:07:46.681Z,16.27
2019-04-06T13:10:12.960Z,17.20
2019-04-06T13:12:39.083Z,17.23
2019-04-06T13:15:05.518Z,16.87
2019-04-06T13:17:31.746Z,17.07
2019-04-06T13:19:57.873Z,17.60
2019-04-06T13:22:23.998Z,17.50
2019-04-06T13:24:50.161Z,16.97
2019-04-06T13:27:16.350Z,15.70
2019-04-06T13:29:42.585Z,16.70
2019-04-06T13:32:08.599Z,18.20
2019-04-06T13:34:34.622Z,16.83
2019-04-06T13:37:00.931Z,19.10
2019-04-06T13:39:27.326Z,16.47
2019-04-06T13:41:54.638Z,15.07
2019-04-06T13:44:20.656Z,16.90
2019-04-06T13:46:46.783Z,15.63
2019-04-06T13:49:12.907Z,14.83
2019-04-06T13:51:39.033Z,13.53
2019-04-06T13:54:05.576Z,11.20
2019-04-06T13:56:33.023Z,12.37
2019-04-06T13:58:59.251Z,13.60
2019-04-06T14:01:25.376Z,12.90
2019-04-06T14:03:51.527Z,12.73
2019-04-06T14:06:18.129Z,13.57
2019-04-06T14:08:44.572Z,13.47
2019-04-06T14:11:30.739Z,14.33
2019-04-06T14:13:58.544Z,27.47
2019-04-06T14:16:24.654Z,15.97
2019-04-06T14:18:54.485Z,14.00
2019-04-06T14:21:23.132Z,14.57
2019-04-06T14:23:50.537Z,15.87
2019-04-06T14:26:20.039Z,15.60
2019-04-06T14:28:47.163Z,17.53
2019-04-06T14:31:25.811Z,17.13
2019-04-06T14:33:41.992Z,17.37
2019-04-06T14:36:09.609Z,16.20
2019-04-06T14:38:36.063Z,16.07
2019-04-06T14:41:02.500Z,16.70
2019-04-06T14:43:28.448Z,17.73
2019-04-06T14:45:54.545Z,17.80
2019-04-06T14:48:20.564Z,18.43
2019-04-06T14:50:46.803Z,18.97
2019-04-06T14:53:12.917Z,17.13
2019-04-06T14:55:39.044Z,17.63
2019-04-06T14:58:05.411Z,17.20
2019-04-06T15:00:32.011Z,16.90
2019-04-06T15:02:58.275Z,17.50
2019-04-06T15:05:24.464Z,17.40
2019-04-06T15:07:50.613Z,16.73
2019-04-06T15:10:16.610Z,17.53
2019-04-06T15:12:42.683Z,16.27
2019-04-06T15:15:09.452Z,17.37
2019-04-06T15:17:35.527Z,18.30
2019-04-06T15:20:03.570Z,16.93
2019-04-06T15:22:29.719Z,21.30
2019-04-06T15:24:55.724Z,19.33
2019-04-06T15:27:21.859Z,15.27
2019-04-06T15:29:47.898Z,15.53
2019-04-06T15:32:14.202Z,14.70
2019-04-06T15:34:40.589Z,14.93
2019-04-06T15:37:07.476Z,15.10
2019-04-06T15:39:34.006Z,14.30
2019-04-06T15:42:01.422Z,14.60
2019-04-06T15:44:27.689Z,14.13
2019-04-06T15:46:53.739Z,16.63
2019-04-06T15:49:19.835Z,15.70
2019-04-06T15:51:45.860Z,13.37
2019-04-06T15:54:12.131Z,13.30
2019-04-06T15:56:38.313Z,14.07
2019-04-06T15:59:04.435Z,15.93
2019-04-06T16:01:30.567Z,13.80
2019-04-06T16:03:58.884Z,13.53
2019-04-06T16:06:25.065Z,14.60
2019-04-06T16:08:51.937Z,13.73
2019-04-06T16:11:18.137Z,13.80
2019-04-06T16:13:44.491Z,13.67
2019-04-06T16:16:10.452Z,12.90
2019-04-06T16:18:37.123Z,13.00
2019-04-06T16:21:03.300Z,12.60
2019-04-06T16:23:29.379Z,12.70
2019-04-06T16:25:55.501Z,11.63
2019-04-06T16:28:22.113Z,12.13
2019-04-06T16:30:50.460Z,11.90
2019-04-06T16:33:16.241Z,11.17
2019-04-06T16:35:42.254Z,11.13
2019-04-06T16:38:08.762Z,10.87
2019-04-06T16:40:35.023Z,11.83
2019-04-06T16:43:01.148Z,11.87
2019-04-06T16:45:27.513Z,11.93
2019-04-06T16:47:53.961Z,12.57
2019-04-06T16:50:20.132Z,13.20
2019-04-06T16:52:47.279Z,12.87
2019-04-06T16:55:13.519Z,13.10
2019-04-06T16:57:40.028Z,19.77
2019-04-06T17:00:18.572Z,14.97
2019-04-06T17:02:36.229Z,14.80
2019-04-06T17:05:04.052Z,15.40
2019-04-06T17:07:30.088Z,15.77
2019-04-06T17:09:56.342Z,16.17
2019-04-06T17:12:22.651Z,16.93
2019-04-06T17:14:49.884Z,16.73
2019-04-06T17:17:16.345Z,17.03
2019-04-06T17:19:42.601Z,17.40
2019-04-06T17:22:08.693Z,17.70
2019-04-06T17:24:35.086Z,17.70
2019-04-06T17:27:01.435Z,18.57
2019-04-06T17:29:27.558Z,18.73
2019-04-06T17:31:53.725Z,19.03
2019-04-06T17:34:19.948Z,19.77
2019-04-06T17:36:46.489Z,18.60
2019-04-06T17:39:13.908Z,21.57
2019-04-06T17:41:40.146Z,19.47
2019-04-06T17:44:06.251Z,19.17
2019-04-06T17:46:32.480Z,19.17
2019-04-06T17:48:58.711Z,19.30
2019-04-06T17:51:24.682Z,19.57
2019-04-06T17:53:51.319Z,20.23
2019-04-06T17:56:18.125Z,28.00
2019-04-06T17:58:44.333Z,25.33
2019-04-06T18:01:10.821Z,44.17
2019-04-06T18:03:38.017Z,52.30
2019-04-06T18:08:43.155Z,246.93
2019-04-06T18:11:09.192Z,573.10
2019-04-06T18:13:35.682Z,246.40
2019-04-06T18:16:02.058Z,73.80
2019-04-06T18:18:28.193Z,37.47
2019-04-06T18:20:54.234Z,21.57
2019-04-06T18:23:20.231Z,20.10
2019-04-06T18:25:46.253Z,20.03
2019-04-06T18:28:12.483Z,20.13
2019-04-06T18:30:38.710Z,20.70
2019-04-06T18:33:04.685Z,24.67
2019-04-06T18:35:31.481Z,20.53
2019-04-06T18:37:57.799Z,19.70
2019-04-06T18:40:24.132Z,21.23
2019-04-06T18:42:50.751Z,20.53
2019-04-06T18:45:16.893Z,20.63
2019-04-06T18:47:42.913Z,20.70
2019-04-06T18:50:09.344Z,20.80
2019-04-06T18:52:35.371Z,21.07
2019-04-06T18:55:02.110Z,21.27
2019-04-06T18:57:28.132Z,20.87
2019-04-06T18:59:55.311Z,20.83
2019-04-06T19:02:21.417Z,20.53
2019-04-06T19:04:47.649Z,21.40
2019-04-06T19:07:14.197Z,22.27
2019-04-06T19:09:40.657Z,21.87
2019-04-06T19:12:06.845Z,22.60
2019-04-06T19:14:32.966Z,21.90
2019-04-06T19:16:59.205Z,22.70
2019-04-06T19:19:26.063Z,26.00
2019-04-06T19:21:52.456Z,24.97
2019-04-06T19:24:18.484Z,25.47
2019-04-06T19:26:44.513Z,25.93
2019-04-06T19:29:10.906Z,26.87
2019-04-06T19:31:37.667Z,26.97
2019-04-06T19:34:04.167Z,27.20
2019-04-06T19:36:30.279Z,25.00
2019-04-06T19:38:56.354Z,25.23
2019-04-06T19:41:22.478Z,24.73
2019-04-06T19:43:48.937Z,25.57
2019-04-06T19:46:15.071Z,25.87
2019-04-06T19:48:41.269Z,25.10
2019-04-06T19:51:07.387Z,23.33
2019-04-06T19:53:33.407Z,24.47
2019-04-06T19:56:00.051Z,24.57
2019-04-06T19:58:26.070Z,24.33
2019-04-06T20:00:52.040Z,25.50
2019-04-06T20:03:18.117Z,24.80
2019-04-06T20:05:44.139Z,23.67
2019-04-06T20:08:10.159Z,24.80
2019-04-06T20:10:36.221Z,26.07
2019-04-06T20:13:05.037Z,25.27
2019-04-06T20:15:31.201Z,25.70
2019-04-06T20:17:57.134Z,27.90
2019-04-06T20:20:23.454Z,27.13
2019-04-06T20:22:50.500Z,26.50
2019-04-06T20:25:16.622Z,25.87
2019-04-06T20:27:43.465Z,27.37
2019-04-06T20:30:10.043Z,27.90
2019-04-06T20:32:36.224Z,26.50
2019-04-06T20:35:05.304Z,27.07
2019-04-06T20:37:31.894Z,25.77
2019-04-06T20:39:58.085Z,26.23
2019-04-06T20:42:24.732Z,28.80
2019-04-06T20:44:50.955Z,28.30
2019-04-06T20:47:17.719Z,28.43
2019-04-06T20:49:45.254Z,29.27
2019-04-06T20:52:11.792Z,29.53
2019-04-06T20:54:38.425Z,30.67
2019-04-06T20:57:04.746Z,31.47
2019-04-06T20:59:30.972Z,30.23
2019-04-06T21:01:56.996Z,29.43
2019-04-06T21:04:23.643Z,30.47
2019-04-06T21:06:50.496Z,30.10
2019-04-06T21:09:16.705Z,30.67
2019-04-06T21:11:42.832Z,31.03
2019-04-06T21:14:09.055Z,31.90
2019-04-06T21:16:35.179Z,31.97
2019-04-06T21:19:01.309Z,31.50
2019-04-06T21:21:27.236Z,32.60
2019-04-06T21:23:53.999Z,31.53
2019-04-06T21:26:20.304Z,32.30
2019-04-06T21:28:46.582Z,31.37
2019-04-06T21:31:13.056Z,31.23
2019-04-06T21:33:41.140Z,30.73
2019-04-06T21:36:07.261Z,31.17
2019-04-06T21:38:33.484Z,30.87
2019-04-06T21:40:59.506Z,31.37
2019-04-06T21:43:25.595Z,30.30
2019-04-06T21:45:52.108Z,29.93
2019-04-06T21:48:18.140Z,30.37
2019-04-06T21:50:44.207Z,29.67
2019-04-06T21:53:10.592Z,27.47
2019-04-06T21:55:36.885Z,28.50
2019-04-06T21:58:03.098Z,29.57
2019-04-06T22:00:30.072Z,29.70
2019-04-06T22:02:56.370Z,28.87
2019-04-06T22:05:22.394Z,29.40
2019-04-06T22:07:52.021Z,29.20
2019-04-06T22:10:16.282Z,28.83
2019-04-06T22:12:42.303Z,29.30
2019-04-06T22:15:08.791Z,29.53
2019-04-06T22:17:35.173Z,29.47
2019-04-06T22:20:02.995Z,29.60
2019-04-06T22:22:29.375Z,28.97
2019-04-06T22:24:55.402Z,28.37
2019-04-06T22:27:21.513Z,26.07
2019-04-06T22:29:47.538Z,27.87
2019-04-06T22:32:13.992Z,28.10
2019-04-06T22:34:41.699Z,27.47
2019-04-06T22:37:08.557Z,27.43
2019-04-06T22:39:35.244Z,26.90
2019-04-06T22:42:02.131Z,25.87
2019-04-06T22:44:28.272Z,25.93
2019-04-06T22:46:54.248Z,25.77
2019-04-06T22:49:20.176Z,27.57
2019-04-06T22:51:46.168Z,29.50
2019-04-06T22:54:12.802Z,27.70
2019-04-06T22:56:38.880Z,27.50
2019-04-06T22:59:04.823Z,27.00
2019-04-06T23:01:30.995Z,28.30
2019-04-06T23:03:57.189Z,26.10
2019-04-06T23:06:23.431Z,25.90
2019-04-06T23:08:49.540Z,27.07
2019-04-06T23:11:15.586Z,26.53
2019-04-06T23:13:41.573Z,26.83
2019-04-06T23:16:07.599Z,26.27
2019-04-06T23:18:33.724Z,25.00
2019-04-06T23:20:59.744Z,23.87
2019-04-06T23:23:25.871Z,25.13
2019-04-06T23:25:52.907Z,24.90
2019-04-06T23:28:19.096Z,25.90
2019-04-06T23:30:45.318Z,25.23
2019-04-06T23:33:12.022Z,25.80
2019-04-06T23:35:38.107Z,26.27
2019-04-06T23:38:04.257Z,27.07
2019-04-06T23:40:30.560Z,27.13
2019-04-06T23:42:57.327Z,29.50
2019-04-06T23:45:23.537Z,29.73
2019-04-06T23:47:50.041Z,28.73
2019-04-06T23:50:16.911Z,26.77
2019-04-06T23:52:43.418Z,26.40
2019-04-06T23:55:09.743Z,26.60
2019-04-06T23:57:36.057Z,27.80
